Time;durP1;ratioP1;P1;durP2;ratioP2;P2;SDS_P1;SDS_P2;PMS_P1;PMS_P2;Temp;Humidity;BMP_temperature;BMP_pressure;BME280_temperature;BME280_humidity;BME280_pressure;Samples;Min_cycle;Max_cycle;Signal;HPM_P1;HPM_P2
2023/10/25 00:00:00;;;;;;;9.07;5.57;;;;;;;7.44;100.00;100020.56;5283250;28;20048;-84
2023/10/25 00:02:31;;;;;;;13.73;5.97;;;;;;;7.45;100.00;100022.28;5281758;28;20033;-83
2023/10/25 00:05:03;;;;;;;13.03;6.37;;;;;;;7.40;100.00;100012.84;5283177;28;20039;-82
2023/10/25 00:07:34;;;;;;;16.33;6.33;;;;;;;7.36;100.00;100011.13;5282985;28;20029;-83
2023/10/25 00:10:07;;;;;;;18.93;7.20;;;;;;;7.37;100.00;100011.13;5282085;28;20029;-84
2023/10/25 00:12:39;;;;;;;12.95;5.93;;;;;;;7.35;100.00;100012.03;5282839;28;20030;-83
2023/10/25 00:15:10;;;;;;;14.80;6.40;;;;;;;7.32;100.00;100001.69;5282801;28;20052;-82
2023/10/25 00:17:42;;;;;;;12.83;6.20;;;;;;;7.28;100.00;99999.13;5283294;28;20035;-83
2023/10/25 00:20:13;;;;;;;9.97;6.03;;;;;;;7.25;100.00;99999.16;5282914;28;20025;-82
2023/10/25 00:22:44;;;;;;;10.63;6.60;;;;;;;7.21;100.00;99997.50;5283150;28;20036;-84
2023/10/25 00:25:16;;;;;;;12.10;6.23;;;;;;;7.18;100.00;99989.78;5282918;28;20111;-83
2023/10/25 00:27:47;;;;;;;12.37;5.57;;;;;;;7.12;100.00;100002.78;5282799;28;20488;-84
2023/10/25 00:30:19;;;;;;;10.63;5.17;;;;;;;7.10;100.00;99992.44;5282839;28;20396;-84
2023/10/25 00:32:51;;;;;;;11.43;5.70;;;;;;;7.08;100.00;99995.91;5283963;28;20039;-84
2023/10/25 00:35:22;;;;;;;9.83;4.43;;;;;;;7.08;100.00;99999.38;5283146;28;20467;-86
2023/10/25 00:37:53;;;;;;;9.03;4.53;;;;;;;7.07;100.00;100004.59;5284729;28;20124;-82
2023/10/25 00:40:25;;;;;;;11.00;4.90;;;;;;;7.03;100.00;100016.69;5286597;28;20066;-84
2023/10/25 00:43:15;;;;;;;9.77;4.73;;;;;;;6.97;100.00;100001.22;5287100;28;20028;-83
2023/10/25 00:45:59;;;;;;;10.38;4.93;;;;;;;6.96;100.00;100011.63;5286815;28;20035;-84
2023/10/25 00:48:31;;;;;;;10.20;4.53;;;;;;;6.96;100.00;100006.44;5286867;28;20419;-84
2023/10/25 00:51:03;;;;;;;11.55;4.40;;;;;;;6.90;100.00;100003.00;5287450;28;20094;-83
2023/10/25 00:53:38;;;;;;;12.50;5.00;;;;;;;6.87;100.00;100004.78;5287319;28;20032;-84
2023/10/25 00:56:11;;;;;;;8.15;4.47;;;;;;;6.92;100.00;100010.75;5286912;28;20024;-83
2023/10/25 00:58:44;;;;;;;11.07;5.68;;;;;;;6.89;100.00;100003.03;5287134;28;20025;-83
2023/10/25 01:01:18;;;;;;;11.38;3.72;;;;;;;6.87;100.00;99994.41;5287064;28;20100;-82
2023/10/25 01:03:49;;;;;;;8.75;4.20;;;;;;;6.89;100.00;99984.88;5288780;28;20044;-83
2023/10/25 01:06:21;;;;;;;8.37;4.40;;;;;;;6.86;100.00;99988.38;5308179;28;20036;-83
2023/10/25 01:08:52;;;;;;;14.60;4.17;;;;;;;6.85;100.00;99989.25;5301553;28;20035;-82
2023/10/25 01:11:25;;;;;;;13.70;4.80;;;;;;;6.85;100.00;99978.88;5310314;28;20023;-84
2023/10/25 01:13:56;;;;;;;;;;;;;;;6.76;100.00;99978.97;5297544;28;20025;-84
2023/10/25 01:16:28;;;;;;;10.60;4.00;;;;;;;6.82;100.00;99980.66;5289187;28;19924;-83
2023/10/25 01:18:59;;;;;;;15.27;4.47;;;;;;;6.86;100.00;99979.72;5286640;28;20035;-83
2023/10/25 01:21:31;;;;;;;11.17;4.00;;;;;;;6.84;100.00;99976.31;5286641;28;20094;-82
2023/10/25 01:24:03;;;;;;;13.63;4.13;;;;;;;6.84;100.00;99978.91;5287464;28;20115;-84
2023/10/25 01:26:35;;;;;;;9.88;4.32;;;;;;;6.78;100.00;99974.66;5287285;28;20032;-82
2023/10/25 01:29:06;;;;;;;6.43;3.60;;;;;;;6.73;100.00;99966.94;5286918;28;20103;-83
2023/10/25 01:31:37;;;;;;;10.47;3.77;;;;;;;6.76;100.00;99963.44;5286321;28;20085;-83
2023/10/25 01:34:09;;;;;;;11.37;4.37;;;;;;;6.76;100.00;99947.88;5287093;28;20119;-84
2023/10/25 01:36:40;;;;;;;17.13;5.53;;;;;;;6.73;100.00;99937.59;5287120;28;20028;-82
2023/10/25 01:39:11;;;;;;;10.00;3.67;;;;;;;6.75;100.00;99941.00;5285503;28;20029;-84
2023/10/25 01:41:43;;;;;;;9.10;3.80;;;;;;;6.77;100.00;99943.59;5286958;28;20063;-82
2023/10/25 01:44:14;;;;;;;7.00;4.27;;;;;;;6.75;100.00;99928.06;5286502;28;20043;-85
2023/10/25 01:46:46;;;;;;;7.73;3.83;;;;;;;6.81;100.00;99920.22;5286731;28;20036;-84
2023/10/25 01:49:17;;;;;;;8.13;3.43;;;;;;;6.84;100.00;99927.97;5286851;28;20032;-83
2023/10/25 01:51:48;;;;;;;7.63;3.17;;;;;;;6.83;100.00;99925.38;5287104;28;20033;-84
2023/10/25 01:54:20;;;;;;;10.40;4.57;;;;;;;6.88;100.00;99929.63;5285868;28;20079;-84
2023/10/25 01:56:51;;;;;;;8.57;3.67;;;;;;;6.93;100.00;99927.00;5285483;28;20033;-84
2023/10/25 01:59:22;;;;;;;14.30;4.07;;;;;;;7.00;100.00;99920.00;5284560;28;20036;-81
2023/10/25 02:01:54;;;;;;;10.37;3.67;;;;;;;7.02;100.00;99915.66;5280662;28;20488;-82
2023/10/25 02:04:25;;;;;;;10.90;4.83;;;;;;;7.08;100.00;99906.09;5283123;28;20561;-82
2023/10/25 02:06:56;;;;;;;11.27;3.73;;;;;;;7.11;100.00;99905.16;5285685;28;20060;-83
2023/10/25 02:09:28;;;;;;;17.30;3.70;;;;;;;7.15;100.00;99911.16;5285499;28;20028;-82
2023/10/25 02:12:00;;;;;;;12.45;3.83;;;;;;;7.17;100.00;99914.63;5284892;28;20032;-83
2023/10/25 02:14:32;;;;;;;6.73;3.07;;;;;;;7.20;100.00;99915.44;5286172;28;20055;-82
2023/10/25 02:17:04;;;;;;;6.63;3.13;;;;;;;7.23;100.00;99911.91;5285679;28;20082;-82
2023/10/25 02:19:36;;;;;;;10.60;3.70;;;;;;;7.23;100.00;99907.63;5285487;28;20035;-83
2023/10/25 02:22:08;;;;;;;9.80;3.22;;;;;;;7.23;100.00;99897.25;5285703;28;20484;-82
2023/10/25 02:24:39;;;;;;;9.10;3.57;;;;;;;7.23;100.00;99894.66;5284253;28;20040;-81
2023/10/25 02:27:10;;;;;;;9.87;3.30;;;;;;;7.22;100.00;99886.91;5284880;28;20024;-82
2023/10/25 02:29:42;;;;;;;11.37;3.43;;;;;;;7.25;100.00;99882.53;5282026;28;20043;-82
2023/10/25 02:32:13;;;;;;;11.50;4.80;;;;;;;7.26;100.00;99885.97;5284756;28;20084;-83
2023/10/25 02:34:46;;;;;;;8.87;3.33;;;;;;;7.32;100.00;99879.84;5298560;28;20036;-84
2023/10/25 02:37:18;;;;;;;9.90;3.58;;;;;;;7.31;100.00;99879.00;5284419;28;20025;-83
2023/10/25 02:39:49;;;;;;;11.50;3.10;;;;;;;7.29;100.00;99870.38;5284259;28;20502;-82
2023/10/25 02:42:21;;;;;;;10.70;3.30;;;;;;;7.32;100.00;99874.66;5284223;28;20032;-82
2023/10/25 02:44:52;;;;;;;8.23;3.23;;;;;;;7.28;100.00;99874.72;5284662;28;20060;-83
2023/10/25 02:47:23;;;;;;;9.73;3.10;;;;;;;7.28;100.00;99871.28;5283140;28;20036;-83
2023/10/25 02:49:55;;;;;;;8.87;3.07;;;;;;;7.25;100.00;99864.38;5284252;28;20028;-83
2023/10/25 02:52:26;;;;;;;11.27;3.40;;;;;;;7.25;100.00;99858.34;5284395;28;20028;-82
2023/10/25 02:54:57;;;;;;;11.30;3.53;;;;;;;7.27;100.00;99859.16;5282846;28;20098;-83
2023/10/25 02:57:29;;;;;;;7.33;3.53;;;;;;;7.25;100.00;99859.19;5283056;28;20028;-83
2023/10/25 03:00:00;;;;;;;7.17;3.47;;;;;;;7.29;100.00;99849.63;5282327;28;20032;-84
2023/10/25 03:02:32;;;;;;;9.50;3.30;;;;;;;7.30;100.00;99844.41;5283992;28;20024;-83
2023/10/25 03:05:03;;;;;;;12.87;3.43;;;;;;;7.32;100.00;99841.81;5284009;28;20039;-84
2023/10/25 03:07:35;;;;;;;12.20;4.07;;;;;;;7.40;100.00;99836.53;5283338;28;20047;-83
2023/10/25 03:10:06;;;;;;;8.83;3.20;;;;;;;7.41;100.00;99833.91;5283535;28;20081;-81
2023/10/25 03:12:38;;;;;;;10.23;3.10;;;;;;;7.42;100.00;99835.63;5282455;28;20089;-84
2023/10/25 03:15:09;;;;;;;8.77;3.43;;;;;;;7.46;100.00;99831.25;5283612;28;20095;-83
2023/10/25 03:17:41;;;;;;;11.90;3.87;;;;;;;7.47;100.00;99819.97;5283597;28;20036;-83
2023/10/25 03:20:12;;;;;;;10.63;3.47;;;;;;;7.49;100.00;99816.50;5265670;28;20070;-83
2023/10/25 03:22:43;;;;;;;9.80;3.33;;;;;;;7.49;100.00;99818.22;5283840;28;20369;-84
2023/10/25 03:25:15;;;;;;;11.20;3.40;;;;;;;7.51;100.00;99811.28;5284131;28;20035;-83
2023/10/25 03:27:46;;;;;;;7.80;3.33;;;;;;;7.52;100.00;99810.41;5284022;28;20040;-83
2023/10/25 03:30:18;;;;;;;9.23;3.43;;;;;;;7.53;100.00;99814.69;5283687;28;20099;-82
2023/10/25 03:32:49;;;;;;;12.23;4.00;;;;;;;7.55;100.00;99815.56;5283611;28;20471;-83
2023/10/25 03:35:21;;;;;;;9.33;3.27;;;;;;;7.56;100.00;99811.22;5284291;28;20036;-83
2023/10/25 03:37:52;;;;;;;9.40;3.60;;;;;;;7.59;100.00;99806.81;5282600;28;20475;-83
2023/10/25 03:40:23;;;;;;;5.97;3.23;;;;;;;7.59;100.00;99809.41;5284225;28;20037;-83
2023/10/25 03:42:55;;;;;;;9.20;3.37;;;;;;;7.56;100.00;99800.84;5284121;28;20093;-83
2023/10/25 03:45:26;;;;;;;9.97;3.23;;;;;;;7.57;100.00;99803.41;5283755;28;20475;-83
2023/10/25 03:47:57;;;;;;;7.73;3.70;;;;;;;7.60;100.00;99802.47;5284053;28;20060;-82
2023/10/25 03:50:29;;;;;;;8.90;3.30;;;;;;;7.61;100.00;99797.28;5295644;28;20031;-83
2023/10/25 03:53:00;;;;;;;9.07;3.77;;;;;;;7.65;100.00;99798.94;5307907;28;20017;-82
2023/10/25 03:55:31;;;;;;;7.33;2.97;;;;;;;7.66;100.00;99800.66;5288473;28;20028;-83
2023/10/25 03:58:03;;;;;;;9.10;3.53;;;;;;;7.69;100.00;99793.72;5285291;28;20058;-83
2023/10/25 04:00:34;;;;;;;8.93;2.73;;;;;;;7.71;100.00;99794.53;5285080;28;20037;-83
2023/10/25 04:03:06;;;;;;;8.73;3.00;;;;;;;7.71;100.00;99792.81;5284094;28;20052;-81
2023/10/25 04:05:40;;;;;;;9.43;3.43;;;;;;;7.73;100.00;99788.44;5283535;28;20040;-83
2023/10/25 04:08:12;;;;;;;7.80;3.65;;;;;;;7.75;100.00;99791.00;5283180;28;20037;-81
2023/10/25 04:10:57;;;;;;;8.50;2.83;;;;;;;7.75;100.00;99788.41;5283423;28;20162;-82
2023/10/25 04:13:29;;;;;;;6.43;3.17;;;;;;;7.77;100.00;99784.91;5287202;28;20025;-82
2023/10/25 04:16:09;;;;;;;6.73;3.73;;;;;;;7.78;100.00;99790.97;5287721;28;20055;-83
2023/10/25 04:18:40;;;;;;;8.40;3.15;;;;;;;7.81;100.00;99783.97;5286110;28;20059;-82
2023/10/25 04:21:13;;;;;;;8.53;3.97;;;;;;;7.84;100.00;99783.94;5286256;28;20121;-83
2023/10/25 04:23:44;;;;;;;9.18;3.50;;;;;;;7.85;100.00;99784.78;5287106;28;20378;-84
2023/10/25 04:26:15;;;;;;;10.60;3.80;;;;;;;7.83;100.00;99790.00;5287351;28;20028;-84
2023/10/25 04:28:47;;;;;;;10.37;3.83;;;;;;;7.86;100.00;99781.31;5285665;28;20029;-83
2023/10/25 04:31:20;;;;;;;10.90;4.70;;;;;;;7.86;100.00;99778.72;5286767;28;20059;-83
2023/10/25 04:33:52;;;;;;;12.30;4.50;;;;;;;7.88;100.00;99771.75;5285786;28;20475;-83
2023/10/25 04:36:23;;;;;;;8.23;5.27;;;;;;;7.91;100.00;99774.28;5287137;28;20040;-82
2023/10/25 04:38:54;;;;;;;11.23;4.50;;;;;;;7.92;100.00;99768.22;5286539;28;20075;-83
2023/10/25 04:41:26;;;;;;;9.67;4.20;;;;;;;7.92;100.00;99767.34;5285504;28;20029;-77
2023/10/25 04:43:57;;;;;;;9.90;4.03;;;;;;;7.94;100.00;99770.78;5286131;28;20040;-78
2023/10/25 04:46:28;;;;;;;12.07;4.80;;;;;;;7.93;100.00;99762.13;5286171;28;20028;-78
2023/10/25 04:49:00;;;;;;;7.70;4.30;;;;;;;7.92;100.00;99752.66;5286153;28;20035;-77
2023/10/25 04:51:31;;;;;;;8.93;3.40;;;;;;;7.92;100.00;99751.78;5286423;28;20029;-77
2023/10/25 04:54:03;;;;;;;9.37;4.10;;;;;;;7.92;100.00;99747.47;5286167;28;20118;-77
2023/10/25 04:56:34;;;;;;;12.83;4.27;;;;;;;7.92;100.00;99747.47;5284529;28;20036;-78
2023/10/25 04:59:06;;;;;;;8.43;3.87;;;;;;;7.93;100.00;99738.78;5284783;28;20415;-77
2023/10/25 05:01:37;;;;;;;13.80;4.07;;;;;;;7.94;100.00;99732.72;5285725;28;20115;-77
2023/10/25 05:04:08;;;;;;;11.60;4.33;;;;;;;7.94;100.00;99724.94;5285641;28;20033;-75
2023/10/25 05:06:40;;;;;;;8.53;4.00;;;;;;;7.94;100.00;99730.13;5285509;28;20029;-75
2023/10/25 05:09:12;;;;;;;10.07;3.97;;;;;;;7.92;100.00;99731.03;5283745;28;20040;-76
2023/10/25 05:11:54;;;;;;;8.33;4.50;;;;;;;7.93;100.00;99719.78;5284125;28;20041;-76
2023/10/25 05:14:26;;;;;;;8.60;4.10;;;;;;;7.93;100.00;99722.38;5283679;28;20056;-77
2023/10/25 05:16:58;;;;;;;15.40;4.03;;;;;;;7.92;100.00;99708.53;5284331;28;20045;-76
2023/10/25 05:19:29;;;;;;;8.60;3.50;;;;;;;7.92;100.00;99710.25;5285288;28;20024;-77
2023/10/25 05:22:10;;;;;;;9.00;4.20;;;;;;;7.93;100.00;99707.63;5285794;28;20375;-76
2023/10/25 05:24:41;;;;;;;9.80;4.10;;;;;;;7.92;100.00;99705.94;5285513;28;20456;-77
2023/10/25 05:27:13;;;;;;;14.17;4.97;;;;;;;7.91;100.00;99701.63;5285350;28;20063;-77
2023/10/25 05:29:45;;;;;;;13.47;4.60;;;;;;;7.91;100.00;99698.19;5284971;28;20032;-77
2023/10/25 05:32:19;;;;;;;12.67;4.10;;;;;;;7.90;100.00;99701.66;5283658;28;20028;-77
2023/10/25 05:34:51;;;;;;;8.45;4.07;;;;;;;7.88;100.00;99693.91;5284785;28;20468;-76
2023/10/25 05:37:23;;;;;;;8.97;3.80;;;;;;;7.87;100.00;99681.81;5284889;28;20032;-77
2023/10/25 05:39:55;;;;;;;15.70;5.10;;;;;;;7.87;100.00;99686.16;5284691;28;20032;-76
2023/10/25 05:42:27;;;;;;;13.17;4.00;;;;;;;7.87;100.00;99681.81;5284829;28;20290;-77
2023/10/25 05:44:58;;;;;;;13.70;3.97;;;;;;;7.90;100.00;99680.91;5284574;28;20093;-76
2023/10/25 05:47:30;;;;;;;12.03;4.00;;;;;;;7.89;100.00;99682.66;5284971;28;20395;-77
2023/10/25 05:50:02;;;;;;;9.13;3.60;;;;;;;7.90;100.00;99676.56;5284578;28;20032;-76
2023/10/25 05:52:34;;;;;;;11.33;4.13;;;;;;;7.90;100.00;99681.75;5284614;28;20066;-77
2023/10/25 05:55:06;;;;;;;9.33;3.87;;;;;;;7.92;100.00;99680.00;5284485;28;20460;-77
2023/10/25 05:57:37;;;;;;;10.50;3.55;;;;;;;7.94;100.00;99677.38;5284181;28;20279;-77
2023/10/25 06:00:09;;;;;;;7.87;3.53;;;;;;;7.94;100.00;99670.44;5284628;28;20101;-76
2023/10/25 06:02:43;;;;;;;12.93;4.20;;;;;;;7.96;100.00;99671.25;5283152;28;20472;-77
2023/10/25 06:05:14;;;;;;;12.90;4.25;;;;;;;7.96;100.00;99668.66;5282799;28;20055;-77
2023/10/25 06:07:46;;;;;;;9.23;3.70;;;;;;;7.97;100.00;99669.50;5284371;28;20113;-77
2023/10/25 06:10:18;;;;;;;6.50;3.50;;;;;;;7.97;100.00;99664.31;5284182;28;20032;-76
2023/10/25 06:12:50;;;;;;;10.10;3.93;;;;;;;7.98;100.00;99664.28;5266339;28;20032;-76
2023/10/25 06:15:21;;;;;;;9.37;3.57;;;;;;;7.99;100.00;99662.56;5284073;28;20696;-76
2023/10/25 06:17:53;;;;;;;12.70;3.90;;;;;;;8.01;100.00;99669.41;5284058;28;20139;-77
2023/10/25 06:20:24;;;;;;;11.80;4.87;;;;;;;8.01;100.00;99661.63;5283302;28;20123;-77
2023/10/25 06:22:57;;;;;;;11.43;4.13;;;;;;;8.01;100.00;99656.44;5284414;28;20025;-77
2023/10/25 06:25:32;;;;;;;6.30;3.38;;;;;;;8.04;100.00;99646.00;5283972;28;20056;-76
2023/10/25 06:28:04;;;;;;;10.02;5.25;;;;;;;8.04;100.00;99638.22;5283858;28;20063;-76
2023/10/25 06:30:36;;;;;;;10.02;4.70;;;;;;;8.06;100.00;99640.78;5286211;28;20032;-77
2023/10/25 06:33:07;;;;;;;7.67;3.40;;;;;;;8.04;100.00;99638.22;5289349;28;20038;-75
2023/10/25 06:35:39;;;;;;;7.67;4.40;;;;;;;8.06;100.00;99634.75;5284200;28;20027;-76
2023/10/25 06:38:11;;;;;;;5.32;3.22;;;;;;;8.08;100.00;99627.75;5282841;28;20040;-76
2023/10/25 06:40:44;;;;;;;8.23;3.53;;;;;;;8.09;100.00;99626.88;5282988;28;20043;-77
2023/10/25 06:43:15;;;;;;;9.52;3.75;;;;;;;8.10;100.00;99625.97;5282964;28;20028;-77
2023/10/25 06:45:47;;;;;;;10.67;3.83;;;;;;;8.12;100.00;99630.28;5283992;28;20481;-76
2023/10/25 06:48:19;;;;;;;9.70;4.00;;;;;;;8.12;100.00;99625.06;5284169;28;20037;-76
2023/10/25 06:50:53;;;;;;;9.20;3.40;;;;;;;8.14;100.00;99609.47;5283870;28;20028;-76
2023/10/25 06:53:25;;;;;;;8.68;4.20;;;;;;;8.15;100.00;99609.44;5283555;28;20036;-77
2023/10/25 06:55:57;;;;;;;10.23;3.60;;;;;;;8.17;100.00;99601.63;5282551;28;20379;-77
2023/10/25 06:58:29;;;;;;;6.73;3.37;;;;;;;8.20;100.00;99601.56;5282457;28;20028;-76
2023/10/25 07:01:02;;;;;;;8.60;3.60;;;;;;;8.21;100.00;99592.84;5282292;28;20459;-75
2023/10/25 07:03:35;;;;;;;11.27;5.05;;;;;;;8.24;100.00;99587.59;5283208;28;20119;-75
2023/10/25 07:06:07;;;;;;;11.25;3.30;;;;;;;8.28;100.00;99584.06;5283601;28;20082;-76
2023/10/25 07:08:38;;;;;;;9.73;3.22;;;;;;;8.30;100.00;99578.84;5282860;28;20032;-76
2023/10/25 07:11:10;;;;;;;7.60;3.37;;;;;;;8.32;100.00;99577.91;5283643;28;20031;-77
2023/10/25 07:13:41;;;;;;;7.53;3.40;;;;;;;8.36;100.00;99576.94;5283451;28;20492;-77
2023/10/25 07:16:12;;;;;;;10.53;3.57;;;;;;;8.36;100.00;99574.34;5283336;28;20060;-77
2023/10/25 07:18:45;;;;;;;9.07;3.13;;;;;;;8.39;100.00;99574.28;5283587;28;20024;-77
2023/10/25 07:21:16;;;;;;;10.18;3.08;;;;;;;8.39;100.00;99584.66;5265335;28;20515;-77
2023/10/25 07:23:48;;;;;;;8.17;3.60;;;;;;;8.42;100.00;99583.75;5283243;28;20166;-78
2023/10/25 07:26:19;;;;;;;5.70;3.27;;;;;;;8.44;100.00;99581.16;5283193;28;20028;-77
2023/10/25 07:28:51;;;;;;;7.23;3.10;;;;;;;8.45;100.00;99575.91;5283522;28;20036;-76
2023/10/25 07:31:22;;;;;;;10.13;3.03;;;;;;;8.47;100.00;99571.53;5283319;28;20024;-76
2023/10/25 07:33:53;;;;;;;7.77;3.20;;;;;;;8.47;100.00;99562.88;5283052;28;20047;-78
2023/10/25 07:36:25;;;;;;;9.60;3.20;;;;;;;8.50;100.00;99555.88;5283478;28;20025;-76
2023/10/25 07:38:57;;;;;;;11.53;3.00;;;;;;;8.51;100.00;99551.53;5283043;28;20024;-77
2023/10/25 07:41:28;;;;;;;5.72;2.95;;;;;;;8.54;100.00;99554.06;5282911;28;20032;-77
2023/10/25 07:44:01;;;;;;;5.27;3.20;;;;;;;8.55;100.00;99546.25;5283226;28;20043;-77
2023/10/25 07:46:32;;;;;;;7.28;3.03;;;;;;;8.62;100.00;99543.50;5284966;28;20036;-76
2023/10/25 07:49:03;;;;;;;11.70;3.33;;;;;;;8.64;100.00;99537.34;5286087;28;20036;-76
2023/10/25 07:51:36;;;;;;;5.57;2.77;;;;;;;8.70;100.00;99539.81;5287544;28;20082;-75
2023/10/25 07:54:07;;;;;;;9.52;3.28;;;;;;;8.77;100.00;99527.50;5285795;28;20037;-76
2023/10/25 07:56:38;;;;;;;8.87;3.20;;;;;;;8.85;100.00;99525.56;5287385;28;20039;-76
2023/10/25 07:59:10;;;;;;;7.67;3.63;;;;;;;8.89;100.00;99518.56;5286118;28;20040;-76
2023/10/25 08:01:41;;;;;;;7.10;3.83;;;;;;;8.96;100.00;99511.44;5286226;28;20467;-77
2023/10/25 08:04:13;;;;;;;6.67;3.00;;;;;;;9.00;100.00;99503.53;5287400;28;20024;-77
2023/10/25 08:06:44;;;;;;;10.77;2.87;;;;;;;9.02;100.00;99512.13;5287938;28;20037;-77
2023/10/25 08:09:16;;;;;;;8.07;3.50;;;;;;;9.02;100.00;99504.34;5269490;28;20061;-76
2023/10/25 08:11:47;;;;;;;7.17;2.50;;;;;;;9.03;100.00;99500.84;5286614;28;20471;-76
2023/10/25 08:14:19;;;;;;;6.97;2.77;;;;;;;9.06;100.00;99503.34;5289168;28;20036;-77
2023/10/25 08:16:50;;;;;;;8.07;3.10;;;;;;;9.06;100.00;99495.53;5294045;28;20116;-77
2023/10/25 08:19:22;;;;;;;9.97;3.57;;;;;;;9.14;100.00;99490.13;5293529;28;20527;-77
2023/10/25 08:21:53;;;;;;;5.60;2.60;;;;;;;9.19;100.00;99485.66;5277898;28;20105;-76
2023/10/25 08:24:24;;;;;;;10.73;3.60;;;;;;;9.26;100.00;99486.38;5289853;28;20032;-77
2023/10/25 08:26:58;;;;;;;6.97;3.20;;;;;;;9.31;100.00;99480.13;5285695;28;20040;-80
2023/10/25 08:29:30;;;;;;;7.53;2.95;;;;;;;9.35;100.00;99480.03;5286535;28;20029;-76
2023/10/25 08:32:01;;;;;;;11.13;3.93;;;;;;;9.35;100.00;99483.47;5285258;28;20040;-77
2023/10/25 08:34:32;;;;;;;6.20;3.00;;;;;;;9.33;100.00;99472.28;5286419;28;20111;-77
2023/10/25 08:37:04;;;;;;;20.83;3.43;;;;;;;9.31;100.00;99461.91;5286287;28;20043;-76
2023/10/25 08:39:36;;;;;;;5.40;3.00;;;;;;;9.28;100.00;99464.59;5284275;28;20021;-77
2023/10/25 08:42:11;;;;;;;5.22;2.60;;;;;;;9.26;100.00;99462.97;5286326;28;20032;-77
2023/10/25 08:44:42;;;;;;;7.45;3.95;;;;;;;9.23;100.00;99447.44;5286098;28;20071;-77
2023/10/25 08:47:14;;;;;;;5.60;3.30;;;;;;;9.26;100.00;99437.81;5284771;28;20102;-77
2023/10/25 08:49:45;;;;;;;11.00;3.80;;;;;;;9.26;100.00;99440.41;5286037;28;20032;-77
2023/10/25 08:52:23;;;;;;;6.70;3.60;;;;;;;9.26;100.00;99432.59;5285755;28;20111;-77
2023/10/25 08:54:54;;;;;;;7.95;3.83;;;;;;;9.31;100.00;99433.31;5285942;28;20029;-75
2023/10/25 08:57:26;;;;;;;11.13;4.33;;;;;;;9.31;100.00;99435.06;5284786;28;20035;-77
2023/10/25 08:59:58;;;;;;;9.27;3.90;;;;;;;9.29;100.00;99429.06;5285745;28;20032;-77
2023/10/25 09:02:35;;;;;;;8.27;3.70;;;;;;;9.29;100.00;99422.13;5285555;28;20029;-76
2023/10/25 09:05:07;;;;;;;6.32;3.75;;;;;;;9.26;100.00;99413.56;5285714;28;20033;-77
2023/10/25 09:07:39;;;;;;;8.17;4.00;;;;;;;9.27;100.00;99418.72;5284250;28;20059;-76
2023/10/25 09:10:13;;;;;;;9.57;3.92;;;;;;;9.25;100.00;99412.69;5287830;28;20127;-77
2023/10/25 09:12:46;;;;;;;8.02;4.18;;;;;;;9.26;100.00;99414.41;5289175;28;20096;-78
2023/10/25 09:15:35;;;;;;;7.32;3.50;;;;;;;9.26;100.00;99414.41;5285953;28;20526;-77
2023/10/25 09:18:07;;;;;;;7.32;3.58;;;;;;;9.19;100.00;99409.41;5285718;28;20031;-77
2023/10/25 09:20:38;;;;;;;8.47;3.30;;;;;;;9.18;100.00;99405.97;5285378;28;20029;-77
2023/10/25 09:23:10;;;;;;;5.33;3.03;;;;;;;9.20;100.00;99408.53;5285678;28;20032;-78
2023/10/25 09:25:44;;;;;;;9.05;3.78;;;;;;;9.16;100.00;99410.38;5285005;28;20119;-77
2023/10/25 09:28:29;;;;;;;9.52;3.88;;;;;;;9.17;100.00;99419.03;5285466;28;20094;-78
2023/10/25 09:31:01;;;;;;;8.75;3.30;;;;;;;9.18;100.00;99408.56;5285179;28;20443;-78
2023/10/25 09:33:32;;;;;;;6.50;3.30;;;;;;;9.15;100.00;99405.22;5285045;28;20068;-77
2023/10/25 09:36:04;;;;;;;8.80;3.97;;;;;;;9.10;100.00;99389.75;5284856;28;20037;-76
2023/10/25 09:38:35;;;;;;;11.87;4.10;;;;;;;9.09;100.00;99386.28;5284730;28;20086;-77
2023/10/25 09:41:12;;;;;;;8.40;3.83;;;;;;;9.05;100.00;99371.69;5284867;28;20036;-77
2023/10/25 09:43:47;;;;;;;8.00;4.25;;;;;;;9.01;100.00;99377.84;5283688;28;20028;-77
2023/10/25 09:46:22;;;;;;;10.32;5.00;;;;;;;9.03;100.00;99375.22;5283405;28;20036;-82
2023/10/25 09:48:55;;;;;;;10.20;4.90;;;;;;;8.99;100.00;99361.47;5284657;28;20047;-77
2023/10/25 09:51:36;;;;;;;8.02;4.13;;;;;;;9.01;100.00;99361.41;5284764;28;20384;-77
2023/10/25 09:54:12;;;;;;;7.18;4.57;;;;;;;9.01;100.00;99361.41;5283176;28;20028;-76
2023/10/25 09:56:47;;;;;;;13.38;5.03;;;;;;;8.96;100.00;99358.09;5284320;28;20044;-77
2023/10/25 09:59:19;;;;;;;10.93;5.10;;;;;;;8.98;100.00;99351.94;5284569;28;20032;-76
2023/10/25 10:01:53;;;;;;;12.60;5.32;;;;;;;8.97;100.00;99346.78;5283143;28;20456;-76
2023/10/25 10:04:37;;;;;;;10.13;4.95;;;;;;;8.99;100.00;99348.47;5284399;28;20068;-77
2023/10/25 10:07:08;;;;;;;12.30;5.53;;;;;;;8.98;100.00;99343.31;5284308;28;20122;-77
2023/10/25 10:09:45;;;;;;;8.13;5.50;;;;;;;8.99;100.00;99326.84;5283689;28;20055;-77
2023/10/25 10:12:17;;;;;;;11.23;6.30;;;;;;;8.98;100.00;99325.97;5284230;28;20020;-76
2023/10/25 10:14:49;;;;;;;9.15;6.65;;;;;;;8.94;100.00;99320.00;5283899;28;22314;-77
2023/10/25 10:17:20;;;;;;;9.63;5.80;;;;;;;8.98;100.00;99309.53;5284267;28;20033;-76
2023/10/25 10:19:51;;;;;;;11.07;6.40;;;;;;;9.03;100.00;99302.44;5282553;28;20056;-77
2023/10/25 10:22:23;;;;;;;10.37;5.97;;;;;;;9.08;100.00;99301.41;5283822;28;20056;-76
2023/10/25 10:25:04;;;;;;;11.00;6.90;;;;;;;9.11;100.00;99290.94;5282740;28;20360;-77
2023/10/25 10:27:42;;;;;;;7.32;5.38;;;;;;;9.17;100.00;99291.63;5282649;28;20482;-76
2023/10/25 10:30:32;;;;;;;10.18;5.50;;;;;;;9.23;100.00;99278.44;5283488;28;20089;-77
2023/10/25 10:33:04;;;;;;;7.93;5.30;;;;;;;9.23;100.00;99273.25;5283476;28;20020;-76
2023/10/25 10:35:39;;;;;;;8.90;5.55;;;;;;;9.22;100.00;99267.16;5283604;28;20460;-77
2023/10/25 10:38:10;;;;;;;8.50;5.80;;;;;;;9.22;100.00;99266.31;5283287;28;20111;-77
2023/10/25 10:40:42;;;;;;;9.10;5.40;;;;;;;9.24;100.00;99259.31;5283393;28;20119;-75
2023/10/25 10:43:13;;;;;;;12.10;5.63;;;;;;;9.22;100.00;99259.38;5282409;28;20032;-77
2023/10/25 10:45:45;;;;;;;9.33;5.33;;;;;;;9.22;100.00;99256.78;5282183;28;20028;-76
2023/10/25 10:48:21;;;;;;;8.37;5.30;;;;;;;9.26;100.00;99252.34;5283338;28;20051;-77
2023/10/25 10:50:53;;;;;;;8.75;5.03;;;;;;;9.27;100.00;99243.63;5282215;28;20123;-77
2023/10/25 10:53:24;;;;;;;9.37;5.17;;;;;;;9.29;100.00;99236.66;5283684;28;20543;-76
2023/10/25 10:55:55;;;;;;;9.50;5.10;;;;;;;9.35;100.00;99225.19;5283276;28;20028;-76
2023/10/25 10:58:29;;;;;;;8.10;5.70;;;;;;;9.37;100.00;99229.44;5283425;28;20058;-77
2023/10/25 11:01:01;;;;;;;7.55;5.32;;;;;;;9.30;100.00;99217.53;5282970;28;20032;-77
2023/10/25 11:03:32;;;;;;;8.43;5.37;;;;;;;9.35;100.00;99215.63;5283156;28;20371;-76
2023/10/25 11:06:04;;;;;;;9.07;5.23;;;;;;;9.34;100.00;99203.53;5282806;28;20028;-76
2023/10/25 11:08:35;;;;;;;8.27;4.90;;;;;;;9.37;100.00;99206.03;5283871;28;20032;-76
2023/10/25 11:11:06;;;;;;;8.83;4.90;;;;;;;9.34;100.00;99202.66;5284169;28;20070;-77
2023/10/25 11:13:38;;;;;;;7.00;4.63;;;;;;;9.36;100.00;99196.53;5283818;28;20142;-77
2023/10/25 11:16:10;;;;;;;7.47;5.53;;;;;;;9.35;100.00;99189.63;5284184;28;20476;-76
2023/10/25 11:18:41;;;;;;;7.80;5.30;;;;;;;9.40;100.00;99189.47;5283189;28;20036;-76
2023/10/25 11:21:14;;;;;;;7.73;4.73;;;;;;;9.39;100.00;99179.97;5283783;28;20118;-76
2023/10/25 11:23:45;;;;;;;;;;;;;;;9.51;100.00;99187.34;5284549;28;20028;-77
2023/10/25 11:26:16;;;;;;;8.93;4.80;;;;;;;9.44;100.00;99176.31;5283978;28;20002;-77
2023/10/25 11:28:48;;;;;;;8.70;4.40;;;;;;;9.52;100.00;99176.06;5282903;28;20112;-78
2023/10/25 11:31:20;;;;;;;7.70;4.87;;;;;;;9.53;100.00;99161.28;5282927;28;20032;-77
2023/10/25 11:33:52;;;;;;;8.90;5.10;;;;;;;9.54;100.00;99153.44;5282436;28;20051;-77
2023/10/25 11:36:27;;;;;;;7.73;5.00;;;;;;;9.55;100.00;99154.31;5281276;28;20036;-76
2023/10/25 11:39:06;;;;;;;8.82;5.20;;;;;;;9.55;100.00;99146.50;5282044;28;20028;-77
2023/10/25 11:41:37;;;;;;;10.95;5.78;;;;;;;9.55;100.00;99141.28;5281444;28;20120;-74
2023/10/25 11:44:09;;;;;;;8.80;5.17;;;;;;;9.57;100.00;99144.69;5282564;28;20107;-77
2023/10/25 11:46:41;;;;;;;9.83;5.27;;;;;;;9.56;100.00;99145.56;5282789;28;20376;-76
2023/10/25 11:49:16;;;;;;;8.32;5.72;;;;;;;9.62;100.00;99135.78;5282453;28;20103;-78
2023/10/25 11:51:47;;;;;;;8.70;5.85;;;;;;;9.64;100.00;99135.75;5287722;28;20032;-76